Time;durP1;ratioP1;P1;durP2;ratioP2;P2;SDS_P1;SDS_P2;PMS_P1;PMS_P2;Temp;Humidity;BMP_temperature;BMP_pressure;BME280_temperature;BME280_humidity;BME280_pressure;Samples;Min_cycle;Max_cycle;Signal;HPM_P1;HPM_P2
2022/05/13 00:02:10;;;;;;;7.80;2.13;;;;;;;11.79;95.48;101623.63;5034118;28;20052;-71
2022/05/13 00:04:36;;;;;;;2.88;1.95;;;;;;;11.79;95.00;101620.09;5034111;28;20037;-71
2022/05/13 00:07:02;;;;;;;3.65;2.10;;;;;;;11.79;95.07;101618.31;5034083;28;20391;-71
2022/05/13 00:09:56;;;;;;;3.47;2.03;;;;;;;11.79;95.11;101615.66;4993690;28;20041;-71
2022/05/13 00:12:16;;;;;;;7.28;2.17;;;;;;;11.78;95.49;101608.59;5029929;28;20033;-71
2022/05/13 00:14:45;;;;;;;3.72;1.88;;;;;;;11.79;96.74;101612.13;5012085;28;20091;-71
2022/05/13 00:17:11;;;;;;;4.50;1.77;;;;;;;11.78;94.80;101608.59;5006028;28;20033;-71
2022/05/13 00:19:37;;;;;;;3.72;1.98;;;;;;;11.78;96.36;101613.91;5029715;28;20044;-71
2022/05/13 00:22:03;;;;;;;4.55;2.20;;;;;;;11.76;96.02;101602.50;5029246;28;20044;-71
2022/05/13 00:24:28;;;;;;;6.28;2.00;;;;;;;11.78;96.33;101607.75;5033457;28;20029;-71
2022/05/13 00:26:54;;;;;;;6.45;2.28;;;;;;;11.77;96.04;101614.84;5033061;28;20085;-72
2022/05/13 00:29:19;;;;;;;4.25;1.95;;;;;;;11.77;95.47;101606.88;5032689;28;20539;-71
2022/05/13 00:31:45;;;;;;;5.07;2.40;;;;;;;11.77;97.36;101604.22;5010865;28;20055;-71
2022/05/13 00:34:11;;;;;;;5.40;2.15;;;;;;;11.77;96.14;101601.56;5032394;28;20033;-71
2022/05/13 00:36:37;;;;;;;5.97;1.98;;;;;;;11.78;96.40;101608.59;5033436;28;20029;-71
2022/05/13 00:39:03;;;;;;;4.85;2.47;;;;;;;11.78;96.81;101600.63;5032257;28;20040;-71
2022/05/13 00:41:30;;;;;;;5.68;2.05;;;;;;;11.78;96.79;101603.28;5027643;28;20077;-71
2022/05/13 00:43:56;;;;;;;7.72;2.17;;;;;;;11.78;96.11;101584.72;4990527;28;20025;-71
2022/05/13 00:46:23;;;;;;;6.93;1.88;;;;;;;11.77;96.33;101598.91;5034431;28;20033;-71
2022/05/13 00:48:48;;;;;;;7.18;2.20;;;;;;;11.77;96.28;101590.97;5014394;28;20942;-71
2022/05/13 00:51:22;;;;;;;9.70;2.28;;;;;;;11.77;97.57;101588.31;5024720;28;20040;-72
2022/05/13 00:53:48;;;;;;;6.93;2.30;;;;;;;11.76;97.27;101583.94;5030093;28;20579;-71
2022/05/13 00:56:15;;;;;;;7.60;2.47;;;;;;;11.77;97.28;101588.31;5032499;28;20033;-71
2022/05/13 00:58:42;;;;;;;7.40;3.00;;;;;;;11.77;98.26;101577.69;5011607;28;20037;-70
2022/05/13 01:01:08;;;;;;;5.47;2.35;;;;;;;11.76;97.25;101580.44;5031072;28;20043;-70
2022/05/13 01:03:36;;;;;;;9.10;2.63;;;;;;;11.76;98.24;101577.78;5029687;28;20075;-70
2022/05/13 01:06:04;;;;;;;10.35;2.83;;;;;;;11.75;99.39;101584.84;5018205;28;20215;-70
2022/05/13 01:08:33;;;;;;;4.95;2.42;;;;;;;11.75;98.90;101582.19;5036009;28;20060;-70
2022/05/13 01:11:02;;;;;;;8.35;2.38;;;;;;;11.74;99.85;101583.13;5019271;28;20071;-71
2022/05/13 01:13:29;;;;;;;5.07;2.53;;;;;;;11.74;98.76;101575.19;5029822;28;20570;-71
2022/05/13 01:15:55;;;;;;;8.77;2.97;;;;;;;11.73;99.32;101581.41;5017174;28;20036;-70
2022/05/13 01:18:31;;;;;;;7.72;2.70;;;;;;;11.73;99.28;101572.56;5035622;28;20037;-70
2022/05/13 01:20:56;;;;;;;12.10;2.80;;;;;;;11.73;99.43;101580.53;5035760;28;20152;-70
2022/05/13 01:23:26;;;;;;;7.25;2.75;;;;;;;11.72;100.00;101582.31;5033303;28;20025;-71
2022/05/13 01:25:55;;;;;;;8.10;2.88;;;;;;;11.72;100.00;101577.00;5030245;28;20033;-71
2022/05/13 01:28:42;;;;;;;7.82;2.67;;;;;;;11.73;99.42;101573.44;5034262;28;20527;-70
2022/05/13 01:31:11;;;;;;;8.38;2.58;;;;;;;11.73;100.00;101573.44;5036345;28;20399;-70
2022/05/13 01:33:37;;;;;;;6.68;2.70;;;;;;;11.74;100.00;101574.31;5024621;28;20041;-71
2022/05/13 01:36:04;;;;;;;10.55;2.97;;;;;;;11.74;100.00;101571.66;5033628;28;20519;-70
2022/05/13 01:38:33;;;;;;;7.95;2.60;;;;;;;11.74;100.00;101569.88;5035014;28;20111;-70
2022/05/13 01:40:59;;;;;;;8.18;2.92;;;;;;;11.73;99.60;101567.28;5034537;28;20067;-71
2022/05/13 01:43:26;;;;;;;7.07;2.65;;;;;;;11.74;100.00;101569.00;5035869;28;20108;-73
2022/05/13 01:45:52;;;;;;;6.03;2.60;;;;;;;11.73;100.00;101561.97;5033946;28;20115;-71
2022/05/13 01:48:19;;;;;;;7.13;2.65;;;;;;;11.73;100.00;101554.88;5035383;28;20040;-70
2022/05/13 01:50:45;;;;;;;9.50;2.60;;;;;;;11.73;99.82;101552.22;5035760;28;20063;-71
2022/05/13 01:53:10;;;;;;;11.07;2.83;;;;;;;11.73;100.00;101552.22;5032602;28;20127;-71
2022/05/13 01:55:36;;;;;;;10.50;2.50;;;;;;;11.73;100.00;101549.56;5032049;28;20037;-71
2022/05/13 01:58:02;;;;;;;7.93;2.78;;;;;;;11.73;100.00;101538.97;5034706;28;20643;-70
2022/05/13 02:00:28;;;;;;;8.15;2.15;;;;;;;11.72;100.00;101539.88;5030927;28;20089;-70
2022/05/13 02:05:38;;;;;;;8.18;2.63;;;;;;;11.72;100.00;101539.03;5029179;28;20049;-70
2022/05/13 02:08:04;;;;;;;10.65;3.20;;;;;;;11.71;100.00;101530.19;5032060;28;20033;-71
2022/05/13 02:10:30;;;;;;;5.13;2.50;;;;;;;11.71;100.00;101532.00;5033899;28;20044;-70
2022/05/13 02:12:56;;;;;;;7.47;2.55;;;;;;;11.70;100.00;101528.47;5014541;28;20055;-70
2022/05/13 02:15:22;;;;;;;5.78;2.30;;;;;;;11.68;100.00;101517.06;5030049;28;20561;-70
2022/05/13 02:17:47;;;;;;;6.63;2.28;;;;;;;11.67;100.00;101521.47;5012292;28;20450;-70
2022/05/13 02:20:13;;;;;;;10.93;3.15;;;;;;;11.68;100.00;101530.31;5033120;28;20045;-70
2022/05/13 02:22:41;;;;;;;6.35;2.50;;;;;;;11.70;100.00;101524.97;5013438;28;20041;-70
2022/05/13 02:25:07;;;;;;;11.27;2.70;;;;;;;11.70;100.00;101517.00;5034135;28;20041;-70
2022/05/13 02:27:33;;;;;;;9.48;2.40;;;;;;;11.68;100.00;101514.41;4995446;28;20506;-70
2022/05/13 02:29:58;;;;;;;9.10;3.30;;;;;;;11.70;100.00;101517.00;5033231;28;20040;-71
2022/05/13 02:32:24;;;;;;;7.32;2.38;;;;;;;11.69;99.60;101513.47;5035317;28;20112;-70
2022/05/13 02:34:50;;;;;;;9.30;2.13;;;;;;;11.71;99.39;101514.28;5031731;28;20033;-71
2022/05/13 02:37:15;;;;;;;7.38;2.10;;;;;;;11.71;99.18;101516.91;5029417;28;20065;-71
2022/05/13 02:39:41;;;;;;;9.35;2.63;;;;;;;11.71;99.06;101522.22;5030441;28;20043;-71
2022/05/13 02:42:07;;;;;;;7.75;2.28;;;;;;;11.71;98.85;101516.91;5000148;28;20828;-71
2022/05/13 02:44:32;;;;;;;6.88;2.05;;;;;;;11.72;98.12;101513.34;5033138;28;20041;-71
2022/05/13 02:46:58;;;;;;;7.05;2.70;;;;;;;11.71;98.23;101516.91;5033832;28;20090;-71
2022/05/13 02:49:23;;;;;;;10.52;2.75;;;;;;;11.71;98.60;101516.91;5011088;28;20403;-71
2022/05/13 02:51:49;;;;;;;6.35;2.05;;;;;;;11.71;98.35;101522.22;5029267;28;20064;-71
2022/05/13 02:54:23;;;;;;;5.03;2.20;;;;;;;11.70;97.82;101520.50;5034325;28;20033;-71
2022/05/13 02:56:49;;;;;;;7.20;2.20;;;;;;;11.70;97.78;101514.34;5011703;28;20054;-71
2022/05/13 02:59:14;;;;;;;7.65;2.40;;;;;;;11.71;97.39;101522.22;5034259;28;20052;-71
2022/05/13 03:01:40;;;;;;;11.85;2.58;;;;;;;11.71;97.50;101513.41;5012530;28;20577;-71
2022/05/13 03:04:05;;;;;;;10.95;2.72;;;;;;;11.68;97.70;101509.94;5031731;28;20069;-71
2022/05/13 03:06:31;;;;;;;6.53;2.22;;;;;;;11.69;98.07;101502.88;5031533;28;20067;-71
2022/05/13 03:08:57;;;;;;;12.50;2.83;;;;;;;11.69;98.01;101510.81;5012087;28;20087;-71
2022/05/13 03:11:23;;;;;;;7.28;2.45;;;;;;;11.70;98.02;101512.53;5009576;28;20052;-71
2022/05/13 03:13:50;;;;;;;9.07;2.13;;;;;;;11.70;98.54;101509.06;5030087;28;20034;-71
2022/05/13 03:16:21;;;;;;;8.38;2.10;;;;;;;11.70;98.25;101503.75;5032973;28;20455;-71
2022/05/13 03:18:49;;;;;;;6.70;2.08;;;;;;;11.69;98.68;101508.16;5026755;28;20594;-71
2022/05/13 03:21:14;;;;;;;5.68;1.90;;;;;;;11.66;98.63;101516.25;5009571;28;20079;-70
2022/05/13 03:23:43;;;;;;;11.75;2.17;;;;;;;11.66;98.26;101518.91;5026025;28;20596;-70
2022/05/13 03:26:14;;;;;;;6.90;2.10;;;;;;;11.65;98.56;101512.72;5031815;28;20037;-71
2022/05/13 03:28:40;;;;;;;7.45;2.30;;;;;;;11.65;98.24;101520.69;5031084;28;20120;-71
2022/05/13 03:31:05;;;;;;;9.38;2.70;;;;;;;11.64;97.97;101526.94;4998349;28;20029;-71
2022/05/13 03:33:31;;;;;;;9.23;2.50;;;;;;;11.65;97.76;101527.78;4996898;28;20041;-70
2022/05/13 03:35:57;;;;;;;6.25;2.10;;;;;;;11.65;97.83;101531.31;5027710;28;20037;-70
2022/05/13 03:38:22;;;;;;;6.75;2.30;;;;;;;11.66;96.87;101534.84;5031202;28;20052;-70
2022/05/13 03:40:48;;;;;;;6.90;2.00;;;;;;;11.67;96.84;101541.84;5030020;28;20242;-70
2022/05/13 03:43:14;;;;;;;8.32;1.73;;;;;;;11.67;96.33;101541.84;5012744;28;20477;-71
2022/05/13 03:45:40;;;;;;;4.40;2.00;;;;;;;11.66;95.61;101540.97;5030090;28;20109;-71
2022/05/13 03:48:08;;;;;;;4.25;1.67;;;;;;;11.65;94.75;101528.66;5031662;28;20685;-72
2022/05/13 03:50:36;;;;;;;2.45;1.45;;;;;;;11.67;93.96;101532.09;5018708;28;20052;-71
2022/05/13 03:53:02;;;;;;;5.57;1.80;;;;;;;11.67;93.59;101532.09;5035278;28;20025;-72
2022/05/13 03:55:28;;;;;;;4.35;1.67;;;;;;;11.69;92.96;101547.97;5027003;28;20113;-71
2022/05/13 03:57:54;;;;;;;3.28;1.67;;;;;;;11.68;92.60;101540.94;4994478;28;20048;-71
2022/05/13 04:00:20;;;;;;;3.78;1.40;;;;;;;11.67;91.16;101536.56;5010039;28;20974;-71
2022/05/13 04:02:46;;;;;;;4.00;1.30;;;;;;;11.68;90.92;101541.78;5007483;28;20306;-71
2022/05/13 04:10:40;;;;;;;2.22;1.50;;;;;;;11.71;90.26;101535.50;5010790;28;20072;-71
2022/05/13 04:16:08;;;;;;;4.45;1.40;;;;;;;11.72;89.85;101549.63;5032460;28;20174;-71
2022/05/13 04:18:37;;;;;;;4.55;1.77;;;;;;;11.73;89.74;101540.75;5011143;28;20033;-70
2022/05/13 04:21:04;;;;;;;2.83;1.63;;;;;;;11.72;89.16;101539.88;4995128;28;20043;-71
2022/05/13 04:23:34;;;;;;;4.00;1.60;;;;;;;11.71;89.52;101527.53;5034327;28;20036;-71
2022/05/13 04:26:00;;;;;;;2.50;1.40;;;;;;;11.72;89.31;101533.72;5014494;28;20029;-71
2022/05/13 04:28:26;;;;;;;2.97;1.50;;;;;;;11.72;89.25;101534.56;5032128;28;20491;-70
2022/05/13 04:30:51;;;;;;;3.22;1.20;;;;;;;11.72;89.13;101539.88;5031586;28;20038;-71
2022/05/13 04:33:17;;;;;;;2.38;1.50;;;;;;;11.72;88.85;101539.88;5034298;28;20044;-71
2022/05/13 04:35:46;;;;;;;5.00;1.42;;;;;;;11.73;88.48;101531.00;5012195;28;20037;-71
2022/05/13 04:38:12;;;;;;;5.32;1.20;;;;;;;11.71;88.44;101532.84;5032423;28;20039;-71
2022/05/13 04:40:37;;;;;;;4.72;1.38;;;;;;;11.72;88.36;101544.31;5016189;28;20084;-71
2022/05/13 04:43:03;;;;;;;2.25;1.17;;;;;;;11.72;88.21;101550.47;5019727;28;20502;-71
2022/05/13 04:45:30;;;;;;;2.63;1.40;;;;;;;11.74;87.82;101566.34;5033237;28;21452;-71
2022/05/13 04:48:16;;;;;;;3.17;1.35;;;;;;;11.74;87.59;101550.44;5019348;28;20038;-71
2022/05/13 04:50:52;;;;;;;5.15;1.50;;;;;;;11.75;87.50;101560.09;5031889;28;20041;-71
2022/05/13 04:53:25;;;;;;;3.10;1.52;;;;;;;11.75;87.33;101563.63;5029614;28;20162;-70
2022/05/13 04:55:50;;;;;;;3.85;1.45;;;;;;;11.75;86.84;101571.59;5038375;28;20281;-71
2022/05/13 04:58:16;;;;;;;1.63;1.13;;;;;;;11.78;87.23;101570.63;5013797;28;20049;-71
2022/05/13 05:00:42;;;;;;;2.42;1.40;;;;;;;11.79;87.06;101567.91;5014663;28;20124;-71
2022/05/13 05:03:07;;;;;;;2.53;1.30;;;;;;;11.81;86.90;101573.13;5038696;28;20175;-70
2022/05/13 05:05:34;;;;;;;3.25;1.23;;;;;;;11.85;87.02;101571.22;5036346;28;20056;-70
2022/05/13 05:08:00;;;;;;;5.35;1.50;;;;;;;11.86;86.90;101571.16;5037179;28;20048;-70
2022/05/13 05:10:26;;;;;;;4.38;1.40;;;;;;;11.87;86.47;101572.06;5036451;28;20079;-70
2022/05/13 05:12:56;;;;;;;2.40;1.30;;;;;;;11.87;86.61;101572.91;5017390;28;20499;-71
2022/05/13 05:15:22;;;;;;;4.63;1.30;;;;;;;11.90;86.72;101580.75;5014495;28;20479;-71
2022/05/13 05:17:48;;;;;;;4.03;1.63;;;;;;;11.93;86.51;101591.22;5016990;28;20053;-71
2022/05/13 05:20:15;;;;;;;2.30;1.30;;;;;;;11.95;86.57;101586.72;5017646;28;20163;-70
2022/05/13 05:22:44;;;;;;;2.03;1.00;;;;;;;11.98;86.47;101585.75;5000076;28;20052;-70
2022/05/13 05:25:10;;;;;;;3.45;1.35;;;;;;;11.99;86.58;101595.41;5036457;28;20040;-71
2022/05/13 05:27:36;;;;;;;1.80;1.30;;;;;;;12.02;86.43;101594.44;5037595;28;20064;-70
2022/05/13 05:30:04;;;;;;;4.40;1.30;;;;;;;12.02;86.35;101592.66;5000523;28;20041;-71
2022/05/13 05:32:30;;;;;;;4.45;1.40;;;;;;;12.06;86.46;101596.97;5032469;28;20041;-71
2022/05/13 05:34:55;;;;;;;1.80;1.23;;;;;;;12.09;86.35;101593.31;5037298;28;20040;-70
2022/05/13 05:37:21;;;;;;;3.00;1.33;;;;;;;12.12;85.68;101598.50;4993745;28;20565;-71
2022/05/13 05:39:46;;;;;;;2.63;1.10;;;;;;;12.16;85.17;101601.91;5033680;28;20076;-71
2022/05/13 05:42:12;;;;;;;5.28;1.33;;;;;;;12.17;84.61;101601.84;5037530;28;20069;-70
2022/05/13 05:44:37;;;;;;;3.92;1.38;;;;;;;12.20;84.70;101604.38;5036740;28;20622;-70
2022/05/13 05:47:04;;;;;;;4.07;1.30;;;;;;;12.24;84.69;101599.78;5000513;28;20049;-71
2022/05/13 05:49:29;;;;;;;2.80;1.30;;;;;;;12.25;84.62;101612.13;5008185;28;20033;-71
2022/05/13 05:51:56;;;;;;;1.55;1.00;;;;;;;12.27;84.41;101615.63;5033696;28;20066;-70
2022/05/13 05:57:26;;;;;;;5.03;1.17;;;;;;;12.32;84.29;101623.38;4981026;28;20038;-70
2022/05/13 05:59:52;;;;;;;3.75;1.30;;;;;;;12.31;84.31;101626.97;4993176;28;20057;-70
2022/05/13 06:02:17;;;;;;;4.70;1.38;;;;;;;12.32;84.09;101629.53;5005689;28;20167;-69
2022/05/13 06:04:43;;;;;;;3.75;1.05;;;;;;;12.32;84.09;101626.88;5016652;28;20159;-69
2022/05/13 06:07:12;;;;;;;7.68;1.42;;;;;;;12.33;84.03;101625.97;5024987;28;20996;-69
2022/05/13 06:09:38;;;;;;;3.83;1.15;;;;;;;12.34;83.75;101633.03;5034405;28;20033;-70
2022/05/13 06:12:07;;;;;;;1.17;1.00;;;;;;;12.35;83.41;101636.53;5035853;28;20041;-70
2022/05/13 06:14:33;;;;;;;3.78;1.40;;;;;;;12.37;83.46;101637.34;5034479;28;20029;-69
2022/05/13 06:16:59;;;;;;;2.00;1.00;;;;;;;12.41;83.58;101630.97;5031927;28;20174;-70
2022/05/13 06:19:25;;;;;;;1.77;1.25;;;;;;;12.43;83.16;101633.56;5012233;28;20787;-69
2022/05/13 06:21:51;;;;;;;2.30;1.20;;;;;;;12.46;83.49;101636.09;5029157;28;20048;-69
2022/05/13 06:24:19;;;;;;;4.45;1.30;;;;;;;12.49;83.59;101647.44;5037213;28;20048;-70
2022/05/13 06:26:48;;;;;;;2.10;1.25;;;;;;;12.50;83.34;101643.00;5034003;28;20029;-69
2022/05/13 06:29:15;;;;;;;2.25;1.20;;;;;;;12.54;83.12;101646.41;5011016;28;20029;-70
2022/05/13 06:31:40;;;;;;;3.00;1.00;;;;;;;12.54;83.15;101657.03;5006942;28;20025;-70
2022/05/13 06:34:06;;;;;;;2.97;1.17;;;;;;;12.55;83.42;101656.09;5033941;28;20033;-70
2022/05/13 06:36:33;;;;;;;1.45;0.90;;;;;;;12.57;83.39;101660.44;5007484;28;20050;-70
2022/05/13 06:38:59;;;;;;;2.53;1.23;;;;;;;12.60;82.98;101654.13;5032287;28;20033;-70
2022/05/13 06:41:24;;;;;;;4.97;1.30;;;;;;;12.65;82.90;101651.28;5032693;28;20043;-70
2022/05/13 06:43:50;;;;;;;5.28;1.05;;;;;;;12.69;82.66;101655.53;5034479;28;20108;-69
2022/05/13 06:46:16;;;;;;;5.63;1.13;;;;;;;12.74;82.80;101642.91;5033317;28;20032;-70
2022/05/13 06:48:44;;;;;;;3.67;1.30;;;;;;;12.79;82.40;101648.06;5031823;28;20273;-70
2022/05/13 06:51:10;;;;;;;1.50;0.80;;;;;;;12.86;82.43;101644.22;5032467;28;20755;-70
2022/05/13 06:53:35;;;;;;;2.33;1.08;;;;;;;12.94;82.30;101646.53;5031342;28;20095;-70
2022/05/13 06:56:01;;;;;;;3.50;1.30;;;;;;;13.03;82.25;101656.78;5030934;28;20033;-70
2022/05/13 06:58:27;;;;;;;1.98;0.85;;;;;;;13.09;81.91;101655.66;5034240;28;20040;-70
2022/05/13 07:00:53;;;;;;;2.63;1.13;;;;;;;13.16;81.53;101654.44;5032237;28;20039;-70
2022/05/13 07:03:20;;;;;;;3.33;1.02;;;;;;;13.17;81.06;101656.16;5010656;28;20040;-69
2022/05/13 07:05:46;;;;;;;2.88;1.00;;;;;;;13.17;80.42;101661.47;5030959;28;20047;-70
2022/05/13 07:08:12;;;;;;;3.20;1.08;;;;;;;13.27;80.92;101659.28;5036642;28;21820;-69
2022/05/13 07:10:42;;;;;;;1.95;0.95;;;;;;;13.36;80.37;101655.38;5036758;28;20036;-69
2022/05/13 07:13:08;;;;;;;3.22;1.30;;;;;;;13.44;80.14;101671.84;5036891;28;20142;-69
2022/05/13 07:15:34;;;;;;;3.10;1.20;;;;;;;13.51;79.78;101670.66;5035887;28;20037;-70
2022/05/13 07:18:00;;;;;;;5.20;1.00;;;;;;;13.58;79.73;101664.13;5037185;28;21020;-68
2022/05/13 07:20:27;;;;;;;1.67;0.88;;;;;;;13.73;79.38;101656.38;5035574;28;20041;-69
2022/05/13 07:22:56;;;;;;;4.03;1.20;;;;;;;13.80;77.99;101672.94;5035754;28;20041;-69
2022/05/13 07:25:22;;;;;;;1.08;0.90;;;;;;;13.90;78.25;101676.91;5012241;28;20099;-69
2022/05/13 07:27:48;;;;;;;1.17;1.00;;;;;;;13.89;77.10;101677.84;5035019;28;20102;-68
2022/05/13 07:30:17;;;;;;;2.72;0.90;;;;;;;13.94;78.15;101688.28;5030502;28;20032;-69
2022/05/13 07:32:43;;;;;;;2.95;1.10;;;;;;;14.01;77.17;101688.84;5033385;28;20503;-68
2022/05/13 07:35:09;;;;;;;3.33;1.33;;;;;;;14.06;77.32;101681.53;5031696;28;20029;-69
2022/05/13 07:37:35;;;;;;;2.10;1.30;;;;;;;14.09;76.64;101684.03;5033493;28;20035;-69
2022/05/13 07:42:47;;;;;;;2.85;1.00;;;;;;;14.23;77.42;101694.03;5015273;28;20083;-69
2022/05/13 07:45:12;;;;;;;3.53;1.10;;;;;;;14.32;76.62;101700.75;5032890;28;20037;-70
2022/05/13 07:47:39;;;;;;;4.28;1.30;;;;;;;14.34;76.21;101693.53;5036582;28;21422;-71
2022/05/13 07:50:16;;;;;;;3.72;1.15;;;;;;;14.41;75.62;101713.59;5038294;28;20037;-70
2022/05/13 07:52:43;;;;;;;1.35;1.08;;;;;;;14.51;76.67;101708.69;5033232;28;20214;-73
2022/05/13 07:55:11;;;;;;;2.03;1.13;;;;;;;14.56;76.25;101713.81;5055913;28;20140;-72
2022/05/13 07:57:41;;;;;;;3.13;1.20;;;;;;;14.51;76.03;101708.69;5011762;28;20040;-71
2022/05/13 08:02:56;;;;;;;2.13;1.35;;;;;;;14.44;75.47;101708.13;5028696;28;20044;-71
2022/05/13 08:05:22;;;;;;;2.60;1.10;;;;;;;14.42;75.87;101718.00;5032793;28;20067;-71
2022/05/13 08:07:48;;;;;;;2.40;1.10;;;;;;;14.42;75.99;101711.81;5033917;28;20475;-72
2022/05/13 08:10:14;;;;;;;2.72;0.98;;;;;;;14.46;75.61;101719.59;4990178;28;20037;-71
2022/05/13 08:12:40;;;;;;;1.92;1.00;;;;;;;14.59;75.09;101724.31;5009643;28;20025;-71
2022/05/13 08:15:06;;;;;;;2.67;1.13;;;;;;;14.57;75.15;101721.72;5030723;28;20090;-73
2022/05/13 08:17:35;;;;;;;2.90;1.02;;;;;;;14.52;74.34;101718.41;4998746;28;20033;-72
2022/05/13 08:20:01;;;;;;;3.20;1.10;;;;;;;14.52;75.04;101724.63;5034216;28;20041;-71
2022/05/13 08:22:39;;;;;;;1.85;1.13;;;;;;;14.72;74.10;101724.59;5034675;28;20035;-69
2022/05/13 08:25:05;;;;;;;2.58;1.20;;;;;;;14.98;73.82;101722.47;5009671;28;20079;-72
2022/05/13 08:27:34;;;;;;;2.13;1.10;;;;;;;15.17;71.72;101730.38;5031833;28;20044;-70
2022/05/13 08:30:14;;;;;;;1.88;1.17;;;;;;;15.32;72.28;101729.59;5027928;28;20049;-71
2022/05/13 08:32:45;;;;;;;4.70;1.00;;;;;;;15.47;72.11;101729.72;5003493;28;20060;-70
2022/05/13 08:35:12;;;;;;;1.67;0.80;;;;;;;15.63;72.07;101724.47;4994880;28;20609;-69
2022/05/13 08:37:50;;;;;;;2.65;0.90;;;;;;;15.79;70.99;101729.00;5009804;28;20026;-70
2022/05/13 08:40:22;;;;;;;3.15;0.93;;;;;;;15.81;70.50;101733.31;5026047;28;20049;-70
2022/05/13 08:42:47;;;;;;;1.88;1.00;;;;;;;15.74;70.17;101724.75;5026533;28;20431;-70
2022/05/13 08:45:14;;;;;;;3.95;1.20;;;;;;;15.76;71.15;101732.69;4998760;28;20038;-70
2022/05/13 08:47:54;;;;;;;3.45;1.20;;;;;;;15.70;70.45;101738.34;5008458;28;20411;-78
2022/05/13 08:50:25;;;;;;;3.00;1.17;;;;;;;15.58;70.24;101730.03;5026378;28;20037;-76
2022/05/13 08:53:12;;;;;;;4.78;1.15;;;;;;;15.45;68.90;101743.19;5027310;28;20041;-69
2022/05/13 08:56:04;;;;;;;1.65;1.02;;;;;;;15.25;69.91;101744.19;5022794;28;20611;-69
2022/05/13 08:58:45;;;;;;;4.03;1.30;;;;;;;15.16;71.19;101748.19;5010670;28;20279;-69
2022/05/13 09:01:23;;;;;;;3.60;1.40;;;;;;;15.15;70.97;101749.13;5026193;28;20087;-69
2022/05/13 09:04:02;;;;;;;3.03;1.02;;;;;;;15.19;72.27;101744.50;5029550;28;20115;-69
2022/05/13 09:06:39;;;;;;;3.05;1.58;;;;;;;15.14;72.35;101754.56;5018270;28;20072;-70
2022/05/13 09:09:08;;;;;;;3.60;1.52;;;;;;;15.14;73.16;101762.56;5023818;28;20409;-69
2022/05/13 09:11:39;;;;;;;3.40;1.45;;;;;;;15.14;72.90;101759.91;5027502;28;20083;-68
2022/05/13 09:14:14;;;;;;;4.35;1.30;;;;;;;15.06;72.46;101766.47;5027559;28;20356;-69
2022/05/13 09:16:52;;;;;;;3.28;1.30;;;;;;;15.02;72.92;101770.22;5014687;28;20045;-70
2022/05/13 09:19:31;;;;;;;4.88;1.60;;;;;;;15.02;73.43;101778.22;5022854;28;20029;-68
2022/05/13 09:21:57;;;;;;;2.17;1.17;;;;;;;15.11;73.72;101778.69;5027248;28;20401;-73
2022/05/13 09:24:22;;;;;;;3.78;1.30;;;;;;;15.20;73.36;101779.09;5025390;28;20098;-72
2022/05/13 09:26:48;;;;;;;3.20;1.48;;;;;;;15.29;72.78;101775.13;5028779;28;20033;-72
2022/05/13 09:29:19;;;;;;;2.50;1.20;;;;;;;15.39;72.03;101777.31;4990669;28;20477;-74
2022/05/13 09:32:00;;;;;;;4.68;1.33;;;;;;;15.47;72.57;101772.44;5029291;28;20037;-73
2022/05/13 09:34:39;;;;;;;3.00;1.35;;;;;;;15.58;72.22;101780.75;5032648;28;20353;-70
2022/05/13 09:37:08;;;;;;;3.72;1.20;;;;;;;15.61;72.35;101777.94;5030907;28;20209;-70
2022/05/13 09:39:36;;;;;;;3.05;1.33;;;;;;;15.70;71.83;101767.72;5032406;28;20487;-71
2022/05/13 09:42:33;;;;;;;2.83;1.17;;;;;;;15.78;69.65;101770.84;5034072;28;20060;-71
2022/05/13 09:45:28;;;;;;;2.15;1.02;;;;;;;15.96;68.77;101768.19;5011246;28;20045;-70
2022/05/13 09:48:17;;;;;;;2.58;1.30;;;;;;;16.17;69.02;101779.50;5010762;28;20044;-69
2022/05/13 09:50:46;;;;;;;3.85;1.30;;;;;;;16.19;67.98;101779.41;5032464;28;20618;-70
2022/05/13 09:53:20;;;;;;;2.78;1.20;;;;;;;16.30;69.56;101774.34;5029016;28;20051;-73
2022/05/13 09:55:51;;;;;;;1.77;1.23;;;;;;;16.55;67.48;101775.66;5001685;28;20121;-74
2022/05/13 09:58:19;;;;;;;2.78;1.10;;;;;;;16.75;69.06;101768.31;5007544;28;20036;-73
2022/05/13 10:00:49;;;;;;;4.28;1.13;;;;;;;16.80;67.01;101767.13;5024239;28;20064;-70
2022/05/13 10:03:23;;;;;;;2.38;1.10;;;;;;;16.65;64.01;101763.50;5026915;28;20053;-70
2022/05/13 10:06:04;;;;;;;3.03;1.20;;;;;;;16.52;65.94;101773.16;5010647;28;20057;-81
2022/05/13 10:08:30;;;;;;;5.60;1.38;;;;;;;16.61;66.77;101767.28;4970430;28;20173;-74
2022/05/13 10:14:00;;;;;;;7.93;1.50;;;;;;;16.73;66.51;101768.41;5003489;28;21056;-74
2022/05/13 10:16:37;;;;;;;2.22;1.30;;;;;;;16.81;64.41;101762.63;4986983;28;20045;-74
2022/05/13 10:19:18;;;;;;;2.85;1.10;;;;;;;16.80;66.67;101776.94;4988737;28;20059;-76
2022/05/13 10:21:50;;;;;;;2.65;1.25;;;;;;;16.72;66.15;101773.84;4994016;28;20047;-78
2022/05/13 10:24:26;;;;;;;3.47;1.40;;;;;;;16.58;66.18;101783.50;4996136;28;20029;-76
2022/05/13 10:26:52;;;;;;;3.65;1.10;;;;;;;16.51;66.44;101782.13;5009333;28;20048;-76
2022/05/13 10:29:43;;;;;;;2.42;1.13;;;;;;;16.52;67.63;101790.03;4985432;28;20038;-76
2022/05/13 10:32:20;;;;;;;1.65;1.20;;;;;;;16.55;65.98;101786.34;4995466;28;20029;-76
2022/05/13 10:34:48;;;;;;;3.33;1.17;;;;;;;16.76;65.85;101792.28;5015856;28;20040;-77
2022/05/13 10:37:43;;;;;;;6.63;1.83;;;;;;;16.89;64.42;101791.59;5010250;28;20037;-76
2022/05/13 10:40:12;;;;;;;4.47;1.42;;;;;;;16.83;66.40;101787.44;5013016;28;20051;-76
2022/05/13 10:42:42;;;;;;;5.10;1.65;;;;;;;16.71;65.21;101797.03;5005370;28;20130;-77
2022/05/13 10:45:17;;;;;;;4.38;1.38;;;;;;;16.53;65.48;101786.44;5006900;28;20057;-75
2022/05/13 10:47:47;;;;;;;5.88;1.40;;;;;;;16.66;67.12;101796.41;5015552;28;20154;-76
2022/05/13 10:50:23;;;;;;;2.80;1.27;;;;;;;16.83;65.39;101811.50;4992951;28;20037;-77
2022/05/13 10:53:27;;;;;;;3.13;1.30;;;;;;;16.83;62.46;101792.78;4978671;28;20084;-76
2022/05/13 10:56:02;;;;;;;3.10;1.40;;;;;;;16.94;65.38;101811.78;4933776;28;20038;-77
2022/05/13 10:58:36;;;;;;;1.63;1.20;;;;;;;17.02;63.36;101803.34;4987322;28;20053;-76
2022/05/13 11:01:31;;;;;;;3.15;1.23;;;;;;;17.10;62.97;101819.81;5012788;28;20119;-77
2022/05/13 11:04:19;;;;;;;5.88;1.35;;;;;;;17.21;63.79;101811.16;5013212;28;20029;-75
2022/05/13 11:07:05;;;;;;;3.15;1.20;;;;;;;17.41;63.39;101809.13;5013091;28;20037;-78
2022/05/13 11:10:12;;;;;;;3.35;1.17;;;;;;;17.44;60.74;101814.28;5005057;28;20041;-79
2022/05/13 11:12:38;;;;;;;2.53;1.02;;;;;;;17.34;63.15;101822.00;4993873;28;20049;-81
2022/05/13 11:15:14;;;;;;;2.83;1.10;;;;;;;17.27;61.75;101820.63;5009142;28;20727;-81
2022/05/13 11:17:52;;;;;;;4.60;1.30;;;;;;;17.03;62.43;101826.47;5005151;28;20581;-79
2022/05/13 11:21:19;;;;;;;1.85;1.10;;;;;;;16.76;62.42;101826.19;5013530;28;20099;-78
2022/05/13 11:26:53;;;;;;;3.50;1.48;;;;;;;16.94;63.04;101824.31;5012396;28;20084;-77
2022/05/13 11:29:51;;;;;;;3.10;1.20;;;;;;;17.01;63.83;101828.34;5011459;28;20507;-78
2022/05/13 11:33:02;;;;;;;1.67;1.15;;;;;;;17.13;60.71;101821.44;4996219;28;20096;-80
2022/05/13 11:35:44;;;;;;;2.75;1.20;;;;;;;17.16;61.62;101820.41;4993030;28;20045;-79
2022/05/13 11:38:32;;;;;;;3.30;1.02;;;;;;;17.06;63.16;101820.09;5002377;28;20460;-78
2022/05/13 11:41:08;;;;;;;2.00;1.00;;;;;;;16.96;62.92;101814.38;4970095;28;20107;-79
2022/05/13 11:43:59;;;;;;;2.08;1.30;;;;;;;16.91;64.06;101832.47;5008079;28;20037;-78
2022/05/13 11:46:52;;;;;;;3.58;1.52;;;;;;;16.82;64.37;101825.84;4987081;28;20040;-78
2022/05/13 11:49:24;;;;;;;3.15;1.25;;;;;;;16.68;65.39;101838.16;5008893;28;20045;-79
2022/05/13 11:51:50;;;;;;;3.60;1.65;;;;;;;16.70;65.82;101832.75;5006248;28;20034;-80
2022/05/13 11:54:19;;;;;;;3.05;1.60;;;;;;;16.76;65.59;101828.84;4991887;28;20061;-78
2022/05/13 11:56:46;;;;;;;2.15;1.30;;;;;;;16.76;64.24;101839.53;4991221;28;20048;-78
2022/05/13 11:59:24;;;;;;;2.83;1.25;;;;;;;16.60;64.35;101842.25;4993740;28;20045;-78
2022/05/13 12:02:12;;;;;;;4.20;1.40;;;;;;;16.30;64.42;101849.16;5011573;28;20043;-78
2022/05/13 12:05:00;;;;;;;5.10;1.50;;;;;;;16.20;64.88;101842.56;5010258;28;20049;-79